Tikaboo Peak, Nevada Weather observations

Data are for 10 minute period ending at time listed.
 Day   Time   Solar   Ave.   Ave.  Ave.  Vector  Max.   Baro.   Total    
  of    of     Rad.   Air    Rel.  Wind   Wind   Wind  Press.  Precip.   
Year   Day            Temp.  Hum.  Speed  Dir.   Gust                    
2015   (PST)  Kw/m2    F      %     mph   deg.    mph    mb.     in.     
-------------------------------------------------------------------------
  90   17:10   0.12   59.2    15   13.0   252    22.9   759.1    0.00 
  90   17:20   0.09   58.5    16   17.5   243    28.4   759.0    0.00 
  90   17:30   0.07   57.5    17   21.8   235    34.8   758.8    0.00 
  90   17:40   0.04   57.0    17   17.6   239    29.5   758.7    0.00 
  90   17:50   0.03   56.5    17   19.4   237    30.7   758.7    0.00 
  90   18:00   0.01   55.9    18   18.3   239    30.2   758.5    0.00 
  90   18:10   0.00   55.5    18   16.6   240    28.1   758.6    0.00 
  90   18:20   0.00   55.0    18   18.9   235    30.4   758.5    0.00 
  90   18:30   0.00   54.7    19   19.3   239    33.6   758.5    0.00 
  90   18:40   0.00   54.4    20   17.0   235    27.0   758.6    0.00 
  90   18:50   0.00   54.1    20   16.5   233    23.2   758.6    0.00 
  90   19:00   0.00   53.7    20   13.9   233    21.9   758.5    0.00 
  90   19:10   0.00   53.5    20   16.5   226    22.8   758.5    0.00 
  90   19:20   0.00   53.4    21   16.2   225    23.5   758.5    0.00 
  90   19:30   0.00   53.2    21   14.9   226    22.2   758.5    0.00 
  90   19:40   0.00   53.0    21   14.9   224    23.3   758.6    0.00 
  90   19:50   0.00   52.8    21   15.1   224    22.0   758.6    0.00 
  90   20:00   0.00   52.7    21   14.0   226    22.2   758.6    0.00 
  90   20:10   0.00   52.5    21   15.2   220    19.9   758.7    0.00 
  90   20:20   0.00   52.4    21   13.4   227    19.7   758.6    0.00 
  90   20:30   0.00   52.3    22   13.2   234    21.0   758.6    0.00 
  90   20:40   0.00   52.2    22   14.7   245    20.5   758.6    0.00 
  90   20:50   0.00   52.1    22   17.2   261    25.6   758.5    0.00 
  90   21:00   0.00   52.1    22   19.3   269    31.2   758.5    0.00 
  90   21:10   0.00   51.9    22   16.2   276    28.9   758.6    0.00 
  90   21:20   0.00   50.1    25   16.4   298    30.6   758.7    0.00 
  90   21:30   0.00   49.8    25   25.8   289    39.3   758.4    0.00 
  90   21:40   0.00   50.6    24   25.5   287    38.7   758.3    0.00 
  90   21:50   0.00   50.3    22   23.8   281    33.4   758.4    0.00 
  90   22:00   0.00   49.7    21   14.9   301    25.8   758.5    0.00 
  90   22:10   0.00   48.4    22    3.3   315    12.5   758.9    0.00 
  90   22:20   0.00   47.9    20    9.8   332    24.8   758.9    0.00 
  90   22:30   0.00   48.0    16    9.8   315    24.5   758.8    0.00 
  90   22:40   0.00   48.1    13    8.3   322    24.8   758.6    0.00 
  90   22:50   0.00   47.8    13    8.2   320    23.5   758.7    0.00 
  90   23:00   0.00   47.3    12    8.9   315    26.4   758.7    0.00 
  90   23:10   0.00   47.0    12    9.8   327    30.3   758.6    0.00 
  90   23:20   0.00   46.7    12    8.6   325    25.5   758.4    0.00 
  90   23:30   0.00   46.6    12   10.1   319    25.0   758.4    0.00 
  90   23:40   0.00   46.4    12    9.8   327    25.2   758.4    0.00 
  90   23:50   0.00   46.5    12   13.1   332    28.4   758.4    0.00 
  91    0:00   0.00   46.5    12   13.1   333    24.0   758.5    0.00 
  91    0:10   0.00   46.2    12   15.5   336    30.2   758.4    0.00 
  91    0:20   0.00   45.9    12   10.5   326    24.9   758.5    0.00 
  91    0:30   0.00   45.8    12   11.0   334    23.1   758.4    0.00 
  91    0:40   0.00   45.6    12   10.1   338    30.6   758.3    0.00 
  91    0:50   0.00   45.5    12   11.2   331    28.7   758.3    0.00 
  91    1:00   0.00   45.4    12    9.8   327    24.7   758.4    0.00 
  91    1:10   0.00   45.0    12    7.1   324    25.0   758.4    0.00 
  91    1:20   0.00   44.8    12    8.5   329    22.3   758.4    0.00 
  91    1:30   0.00   44.6    12   10.7   328    25.0   758.4    0.00 
  91    1:40   0.00   44.2    12    4.2   311    19.4   758.4    0.00 
  91    1:50   0.00   43.9    12    5.7   321    16.9   758.4    0.00 
  91    2:00   0.00   43.5    12    4.9   311    18.3   758.6    0.00 
  91    2:10   0.00   43.1    12    4.4   318    19.1   758.5    0.00 
  91    2:20   0.00   43.2    12    4.3   328    19.5   758.5    0.00 
  91    2:30   0.00   42.8    12    8.2   327    19.3   758.4    0.00 
  91    2:40   0.00   41.8    13   14.2   333    23.1   758.3    0.00 
  91    2:50   0.00   41.5    14   13.4   333    26.2   758.1    0.00 
  91    3:00   0.00   41.6    13   15.9   336    24.4   758.2    0.00 
  91    3:10   0.00   41.9    13   17.3   335    26.3   758.2    0.00 
  91    3:20   0.00   41.6    15   21.2   338    29.4   758.0    0.00 
  91    3:30   0.00   41.0    17   20.1   336    30.4   758.0    0.00 
  91    3:40   0.00   40.2    19   18.5   333    30.2   758.1    0.00 
  91    3:50   0.00   39.6    21   19.4   334    31.0   758.0    0.00 
  91    4:00   0.00   39.0    25   22.4   334    33.8   757.9    0.00 
  91    4:10   0.00   38.7    27   25.0   342    33.7   757.8    0.00 
  91    4:20   0.00   38.6    27   27.1   348    41.9   757.9    0.00 
  91    4:30   0.00   38.7    26   27.9   340    36.2   757.7    0.00 
  91    4:40   0.00   38.0    28   27.8   338    36.0   757.9    0.00 
  91    4:50   0.00   37.7    28   23.7   335    34.5   758.0    0.00 
  91    5:00   0.00   37.4    28   22.5   335    34.2   758.3    0.00 
  91    5:10   0.00   37.4    26   24.1   340    37.6   758.1    0.00 
  91    5:20   0.00   38.0    23   26.7   338    38.3   758.2    0.00 
  91    5:30   0.01   37.2    27   30.8   348    42.9   758.0    0.00 
  91    5:40   0.02   37.1    29   35.4   356    43.3   758.0    0.00 
  91    5:50   0.04   36.5    30   37.8     4    44.8   758.0    0.00 
  91    6:00   0.09   35.5    37   36.2     5    44.9   758.2    0.00 
  91    6:10   0.13   34.7    40   33.3     9    45.5   758.4    0.00 
  91    6:20   0.06   34.2    41   33.0    14    41.9   758.5    0.00 
  91    6:30   0.10   33.5    45   34.2    15    42.4   758.6    0.00 
  91    6:40   0.24   33.5    43   34.5    15    45.1   758.6    0.00 
  91    6:50   0.33   34.6    38   37.3    11    44.9   758.6    0.00 
  91    7:00   0.37   33.9    44   35.7    20    41.9   759.0    0.00 
  91    7:10   0.41   32.5    50   35.7    27    40.9   759.1    0.00 
  91    7:20   0.45   32.5    50   34.5    19    42.3   759.2    0.00 
  91    7:30   0.49   33.2    46   35.3    15    41.4   759.2    0.00 
  91    7:40   0.53   32.9    48   34.2    27    39.9   759.3    0.00 
  91    7:50   0.57   33.0    47   32.1    30    38.9   759.6    0.00 
  91    8:00   0.61   33.6    46   29.3    24    36.5   759.9    0.00 
  91    8:10   0.64   33.9    45   28.0    23    36.7   759.9    0.00 
  91    8:20   0.68   34.4    44   24.1    26    32.1   760.1    0.00 
  91    8:30   0.71   34.8    41   24.1    28    30.2   760.1    0.00 
  91    8:40   0.75   35.4    40   22.6    33    27.4   760.3    0.00 
  91    8:50   0.78   36.0    36   24.2    28    34.8   760.1    0.00 
  91    9:00   0.81   36.2    40   17.5    34    27.8   760.1    0.00 
  91    9:10   0.83   38.4    36    8.4    19    23.5   760.2    0.00 
  91    9:20   0.86   37.5    35   19.4    41    27.5   760.1    0.00 
  91    9:30   0.88   37.0    36   16.7    35    23.0   760.3    0.00 
  91    9:40   0.91   39.0    32   11.4    44    18.0   760.3    0.00 
  91    9:50   0.93   40.9    30    7.3    68    13.0   760.3    0.00 
  91   10:00   0.94   43.9    25    3.8    60     9.0   760.4    0.00 
  91   10:10   0.94   44.9    22    3.3    59     7.6   760.5    0.00 
  91   10:20   0.97   47.4    19    2.9    11     8.6   760.7    0.00 
  91   10:30   0.96   46.8    18    3.3   347    10.2   760.8    0.00 
  91   10:40   0.98   47.9    17    4.2   357     9.1   760.7    0.00 
  91   10:50   0.96   48.3    15    2.3   300     7.2   760.6    0.00 
  91   11:00   0.97   49.0    16    1.4    31     4.5   760.5    0.00 
  91   11:10   0.97   49.4    18    2.2   310     6.1   760.6    0.00 
  91   11:20   0.93   49.7    16    3.9   266     9.1   760.6    0.00 
  91   11:30   0.90   50.5    15    2.1   261     7.1   760.6    0.00 
  91   11:40   1.04   53.6    15    2.3   267     6.2   760.6    0.00 
  91   11:50   1.01   53.6    15    2.6   266     6.8   760.5    0.00 
  91   12:00   1.00   52.4    15    2.4     8     6.0   760.4    0.00 
  91   12:10   1.01   53.6    14    2.0   293     6.2   760.4    0.00 
  91   12:20   0.97   53.8    14    2.1   304     7.0   760.4    0.00 
  91   12:30   0.93   53.8    13    3.3   308     7.2   760.2    0.00 
  91   12:40   0.93   54.4    13    1.7   337     6.4   760.1    0.00 
  91   12:50   0.93   54.6    12    2.5   319     9.2   760.0    0.00 
  91   13:00   0.91   54.2    13    3.1   319     8.1   759.8    0.00 
  91   13:10   0.87   54.7    12    1.9   250     6.3   759.6    0.00 
  91   13:20   0.80   52.4    13    2.2    26     5.5   759.6    0.00 
  91   13:30   0.87   54.0    13    3.6   328    12.3   759.6    0.00 
  91   13:40   0.75   53.5    12    2.0    15     6.4   759.5    0.00 
  91   13:50   0.73   53.8    13    2.7     4     6.3   759.5    0.00 
  91   14:00   0.74   53.2    13    2.1   346     6.0   759.2    0.00 
  91   14:10   0.64   53.1    13    2.0    44     7.2   759.0    0.00 
  91   14:20   0.59   54.2    13    3.2   234     8.9   758.9    0.00 
  91   14:30   0.57   55.1    13    5.9   250    12.6   758.8    0.00 
  91   14:40   0.40   52.5    14    9.5   223    14.8   758.8    0.00 
  91   14:50   0.48   51.1    15    5.6   217    12.5   758.7    0.00 
  91   15:00   0.44   52.3    14    8.3   230    14.9   758.4    0.00 
  91   15:10   0.48   52.5    14    8.7   230    15.7   758.4    0.00 
  91   15:20   0.46   53.3    13    7.6   233    14.2   758.3    0.00 
  91   15:30   0.44   53.1    14    8.3   236    16.2   758.2    0.00 
  91   15:40   0.40   52.5    14   10.7   232    20.0   758.1    0.00 
  91   15:50   0.32   51.9    15    9.8   235    17.2   758.0    0.00 
  91   16:00   0.30   51.5    15   11.1   232    22.1   757.8    0.00 
  91   16:10   0.29   50.9    16   10.3   222    18.0   757.8    0.00 
  91   16:20   0.28   51.2    15   11.8   224    20.5   757.7    0.00 
  91   16:30   0.21   50.6    16   11.4   229    20.1   757.6    0.00 
  91   16:40   0.17   50.1    15   11.4   237    22.6   757.4    0.00 
  91   16:50   0.17   49.7    14   12.5   230    22.8   757.3    0.00 
  91   17:00   0.13   49.4    14   13.1   226    21.2   757.2    0.00 

Return to Tikaboo Peak graphs page.


Western Regional Climate Center,wrcc@dri.edu